Terminal Aerodrome Forecast
Issued by NWS Wilmington, OH

Current Version | Previous Version | Graphics & Text | Print | Product List | Glossary On
Versions: 1 2 3 4 5 6 7 8 9 10 11 12 13 14 15 16 17 18 19 20 21
066
FTUS41 KILN 200537
TAFILN
TAF
KILN 200537Z 2006/2106 04004KT 1/4SM FG OVC002
      TEMPO 2008/2012 1SM BR OVC005
     FM201200 08006KT 4SM BR BKN010
     FM201400 12007KT P6SM BKN012
     FM201600 14007KT P6SM BKN045
     FM201900 15007KT P6SM VCSH BKN050
      TEMPO 2020/2022 4SM -TSRA BR BKN030CB OVC050=

USA.gov is the U.S. government's official web portal to all federal, state and local government web resources and services.